Time;durP1;ratioP1;P1;durP2;ratioP2;P2;SDS_P1;SDS_P2;PMS_P1;PMS_P2;Temp;Humidity;BMP_temperature;BMP_pressure;BME280_temperature;BME280_humidity;BME280_pressure;Samples;Min_cycle;Max_cycle;Signal;HPM_P1;HPM_P2
2023/04/04 00:01:22;;;;;;;9.07;8.77;;;;;;;7.74;100.00;91386.09;5111051;28;20231;-71
2023/04/04 00:03:50;;;;;;;8.73;8.33;;;;;;;7.57;100.00;91384.09;5115132;28;20184;-71
2023/04/04 00:06:16;;;;;;;8.63;8.33;;;;;;;7.51;100.00;91397.47;5096514;28;20718;-71
2023/04/04 00:08:42;;;;;;;9.93;9.53;;;;;;;7.59;100.00;91400.19;5092927;28;20256;-71
2023/04/04 00:11:07;;;;;;;9.03;8.73;;;;;;;7.58;100.00;91403.81;5100370;28;20224;-71
2023/04/04 00:13:33;;;;;;;9.37;8.97;;;;;;;7.63;100.00;91390.75;5106315;28;20256;-72
2023/04/04 00:15:58;;;;;;;10.10;9.40;;;;;;;7.62;100.00;91402.19;5094393;28;20243;-71
2023/04/04 00:18:23;;;;;;;9.43;9.03;;;;;;;7.67;100.00;91398.72;5092731;28;20749;-71
2023/04/04 00:20:49;;;;;;;9.67;9.27;;;;;;;7.42;100.00;91414.78;5093015;28;20231;-70
2023/04/04 00:23:14;;;;;;;10.10;9.70;;;;;;;7.54;100.00;91418.44;5092057;28;20304;-71
2023/04/04 00:25:39;;;;;;;10.53;9.93;;;;;;;7.65;100.00;91408.63;5091497;28;20231;-71
2023/04/04 00:28:05;;;;;;;10.67;10.17;;;;;;;7.73;100.00;91394.97;5092342;28;20249;-71
2023/04/04 00:30:30;;;;;;;10.67;10.17;;;;;;;7.85;100.00;91390.81;5091179;28;20224;-72
2023/04/04 00:32:56;;;;;;;10.53;10.03;;;;;;;8.00;100.00;91374.13;5092297;28;20201;-72
2023/04/04 00:35:22;;;;;;;10.50;9.97;;;;;;;8.00;100.00;91385.28;5093479;28;20915;-72
2023/04/04 00:37:47;;;;;;;10.83;10.23;;;;;;;7.70;100.00;91383.34;5092037;28;20212;-71
2023/04/04 00:40:13;;;;;;;10.67;9.37;;;;;;;7.69;100.00;91379.19;5096555;28;20216;-71
2023/04/04 00:42:39;;;;;;;10.80;10.20;;;;;;;7.72;100.00;91383.81;5100382;28;20207;-71
2023/04/04 00:45:07;;;;;;;10.97;10.27;;;;;;;7.71;100.00;91371.88;5100724;28;20244;-72
2023/04/04 00:47:33;;;;;;;12.07;11.47;;;;;;;7.88;100.00;91371.25;5100690;28;20177;-71
2023/04/04 00:49:58;;;;;;;10.83;10.27;;;;;;;7.86;100.00;91363.75;5100408;28;20231;-71
2023/04/04 00:52:24;;;;;;;10.57;9.93;;;;;;;7.84;100.00;91368.47;5104234;28;20172;-72
2023/04/04 00:54:50;;;;;;;11.10;10.50;;;;;;;7.71;100.00;91352.91;5098701;28;20228;-72
2023/04/04 00:57:15;;;;;;;10.20;9.70;;;;;;;7.66;100.00;91345.22;5092041;28;20185;-72
2023/04/04 00:59:42;;;;;;;10.10;9.50;;;;;;;7.81;100.00;91371.66;5094081;28;20225;-71
2023/04/04 01:02:07;;;;;;;11.37;10.67;;;;;;;7.55;100.00;91370.63;5101824;28;20221;-71
2023/04/04 01:04:34;;;;;;;12.07;11.27;;;;;;;7.71;100.00;91376.28;5102009;28;20273;-71
2023/04/04 01:06:59;;;;;;;10.80;10.27;;;;;;;7.81;100.00;91376.09;5103543;28;20196;-71
2023/04/04 01:09:26;;;;;;;11.93;11.30;;;;;;;7.74;100.00;91375.72;5100021;28;20181;-71
2023/04/04 01:11:52;;;;;;;12.23;11.23;;;;;;;7.77;100.00;91375.91;5101797;28;20279;-71
2023/04/04 01:14:17;;;;;;;12.47;11.77;;;;;;;7.97;100.00;91372.88;5102066;28;20244;-72
2023/04/04 01:16:44;;;;;;;11.93;11.10;;;;;;;7.82;100.00;91378.41;5091366;28;20193;-71
2023/04/04 01:19:18;;;;;;;10.43;9.73;;;;;;;7.60;100.00;91356.78;5091677;28;20206;-72
2023/04/04 01:21:45;;;;;;;9.27;8.87;;;;;;;7.84;100.00;91371.06;5091257;28;20289;-71
2023/04/04 01:24:15;;;;;;;9.83;9.43;;;;;;;7.64;100.00;91355.91;5091985;28;20185;-72
2023/04/04 01:26:40;;;;;;;8.70;8.30;;;;;;;7.71;100.00;91371.88;5111733;28;20212;-71
2023/04/04 01:29:06;;;;;;;9.07;8.77;;;;;;;7.57;100.00;91373.72;5110673;28;20193;-71
2023/04/04 01:31:40;;;;;;;9.53;9.13;;;;;;;7.57;100.00;91371.13;5111418;28;20224;-71
2023/04/04 01:34:33;;;;;;;9.67;9.27;;;;;;;7.55;100.00;91362.84;5111341;28;20249;-71
2023/04/04 01:37:05;;;;;;;9.27;8.87;;;;;;;7.61;100.00;91366.13;5111988;28;20204;-71
2023/04/04 01:39:39;;;;;;;9.47;9.17;;;;;;;7.40;100.00;91360.56;5110394;28;20214;-71
2023/04/04 01:42:06;;;;;;;8.73;8.43;;;;;;;7.50;100.00;91367.38;5112717;28;20212;-71
2023/04/04 01:44:31;;;;;;;8.17;7.77;;;;;;;7.59;100.00;91352.66;5111499;28;20188;-72
2023/04/04 01:46:57;;;;;;;8.83;8.53;;;;;;;7.67;100.00;91349.38;5110956;28;20288;-72
2023/04/04 01:49:23;;;;;;;9.10;8.80;;;;;;;7.60;100.00;91334.19;5110834;28;20255;-71
2023/04/04 01:51:50;;;;;;;8.83;8.53;;;;;;;7.63;100.00;91322.44;5114410;28;20196;-71
2023/04/04 01:54:17;;;;;;;9.43;9.03;;;;;;;7.70;100.00;91322.81;5110939;28;20211;-72
2023/04/04 01:56:43;;;;;;;9.40;9.10;;;;;;;7.59;100.00;91305.91;5111750;28;21100;-71
2023/04/04 01:59:09;;;;;;;9.57;9.17;;;;;;;7.44;100.00;91319.97;5110885;28;20279;-71
2023/04/04 02:01:35;;;;;;;9.00;8.60;;;;;;;7.39;100.00;91322.66;5110677;28;20295;-71
2023/04/04 02:04:01;;;;;;;8.53;8.23;;;;;;;7.54;100.00;91332.75;5110661;28;20176;-71
2023/04/04 02:06:27;;;;;;;8.60;8.30;;;;;;;7.45;100.00;91318.16;5110306;27;20231;-73
2023/04/04 02:08:52;;;;;;;8.33;8.03;;;;;;;7.50;100.00;91333.63;5111243;28;20192;-71
2023/04/04 02:11:21;;;;;;;8.23;7.93;;;;;;;7.53;100.00;91330.44;5109872;27;20254;-72
2023/04/04 02:13:47;;;;;;;9.10;8.70;;;;;;;7.46;100.00;91317.09;5110808;28;20192;-72
2023/04/04 02:16:12;;;;;;;8.57;8.27;;;;;;;7.55;100.00;91330.91;5110976;28;20224;-71
2023/04/04 02:18:38;;;;;;;8.83;8.53;;;;;;;7.49;100.00;91327.66;5113906;28;20187;-71
2023/04/04 02:21:03;;;;;;;8.67;8.37;;;;;;;7.56;100.00;91328.06;5112513;28;20249;-72
2023/04/04 02:23:28;;;;;;;8.30;8.07;;;;;;;7.56;100.00;91325.47;5110471;28;20219;-71
2023/04/04 02:25:54;;;;;;;9.00;8.70;;;;;;;7.54;100.00;91324.97;5110669;28;21178;-71
2023/04/04 02:28:19;;;;;;;8.90;8.60;;;;;;;7.46;100.00;91320.47;5110611;28;20196;-72
2023/04/04 02:30:44;;;;;;;8.70;8.40;;;;;;;7.46;100.00;91317.84;5108945;28;20256;-72
2023/04/04 02:33:10;;;;;;;8.63;8.33;;;;;;;7.49;100.00;91324.28;5110111;28;20202;-71
2023/04/04 02:35:36;;;;;;;8.27;8.00;;;;;;;7.58;100.00;91328.50;5111583;28;20253;-71
2023/04/04 02:38:01;;;;;;;7.40;7.20;;;;;;;7.64;100.00;91331.78;5109888;28;20244;-71
2023/04/04 02:40:27;;;;;;;9.03;8.73;;;;;;;7.69;100.00;91324.66;5109746;28;20224;-72
2023/04/04 02:42:52;;;;;;;8.13;7.93;;;;;;;7.64;100.00;91340.31;5110308;28;20275;-71
2023/04/04 02:45:17;;;;;;;8.50;8.20;;;;;;;7.55;100.00;91336.88;5109451;28;20234;-71
2023/04/04 02:47:49;;;;;;;8.97;8.67;;;;;;;7.52;100.00;91337.47;5109831;28;20216;-71
2023/04/04 02:50:15;;;;;;;9.37;8.97;;;;;;;7.59;100.00;91332.66;5111267;28;20237;-72
2023/04/04 02:52:40;;;;;;;8.63;8.33;;;;;;;7.42;100.00;91332.50;5110124;28;20184;-71
2023/04/04 02:55:07;;;;;;;8.93;8.63;;;;;;;7.48;100.00;91339.13;5110047;28;20491;-71
2023/04/04 02:57:32;;;;;;;9.23;8.83;;;;;;;7.47;100.00;91329.78;5109611;28;20191;-71
2023/04/04 02:59:58;;;;;;;9.07;8.77;;;;;;;7.69;100.00;91332.44;5109680;28;20228;-71
2023/04/04 03:02:24;;;;;;;9.03;8.63;;;;;;;7.63;100.00;91332.81;5109688;28;20203;-71
2023/04/04 03:04:49;;;;;;;8.13;7.83;;;;;;;7.75;100.00;91341.66;5108193;28;20261;-71
2023/04/04 03:07:15;;;;;;;9.37;8.97;;;;;;;7.76;100.00;91334.63;5110080;28;20696;-71
2023/04/04 03:09:43;;;;;;;9.73;9.13;;;;;;;7.72;100.00;91329.25;5110317;28;20231;-71
2023/04/04 03:12:09;;;;;;;9.50;9.10;;;;;;;7.60;100.00;91334.19;5107522;28;20188;-71
2023/04/04 03:14:34;;;;;;;8.73;8.33;;;;;;;7.61;100.00;91338.31;5109815;28;20208;-72
2023/04/04 03:17:00;;;;;;;9.60;9.20;;;;;;;7.57;100.00;91323.59;5109502;28;20220;-71
2023/04/04 03:19:25;;;;;;;10.13;9.73;;;;;;;7.63;100.00;91335.41;5109211;27;20214;-71
2023/04/04 03:21:51;;;;;;;9.17;8.67;;;;;;;7.24;100.00;91276.25;5109948;28;20204;-71
2023/04/04 03:24:16;;;;;;;8.53;8.13;;;;;;;7.55;100.00;91323.91;5108160;27;20210;-71
2023/04/04 03:26:41;;;;;;;8.57;8.27;;;;;;;7.60;100.00;91333.41;5110587;28;20202;-71
2023/04/04 03:29:07;;;;;;;10.10;9.70;;;;;;;7.75;100.00;91336.47;5109559;28;20200;-71
2023/04/04 03:31:32;;;;;;;7.70;7.40;;;;;;;7.29;100.00;91322.88;5109377;28;20216;-71
2023/04/04 03:33:59;;;;;;;9.50;9.10;;;;;;;7.52;100.00;91340.06;5109575;28;20192;-71
2023/04/04 03:36:25;;;;;;;8.43;8.13;;;;;;;7.44;100.00;91330.34;5109511;28;20219;-71
2023/04/04 03:38:50;;;;;;;9.00;8.70;;;;;;;7.63;100.00;91349.19;5110250;28;20269;-72
2023/04/04 03:41:16;;;;;;;8.90;8.60;;;;;;;7.76;100.00;91345.03;5108544;27;20220;-71
2023/04/04 03:43:42;;;;;;;9.20;8.83;;;;;;;7.72;100.00;91346.69;5108705;28;20212;-70
2023/04/04 03:46:07;;;;;;;9.90;9.50;;;;;;;7.38;100.00;91328.91;5109051;28;20268;-74
2023/04/04 03:48:33;;;;;;;9.07;8.50;;;;;;;7.24;100.00;91348.91;5109536;28;20180;-75
2023/04/04 03:50:59;;;;;;;10.40;9.80;;;;;;;7.14;100.00;91359.50;5105254;28;20228;-76
2023/04/04 03:53:25;;;;;;;11.33;10.57;;;;;;;7.25;100.00;91342.69;5109077;28;20184;-76
2023/04/04 03:55:52;;;;;;;11.53;10.83;;;;;;;7.07;100.00;91361.69;5106746;28;20219;-75
2023/04/04 03:58:18;;;;;;;12.03;11.23;;;;;;;6.91;100.00;91352.63;5122106;28;20188;-73
2023/04/04 04:00:44;;;;;;;12.90;12.20;;;;;;;6.91;100.00;91352.63;5106524;27;20231;-72
2023/04/04 04:03:09;;;;;;;12.13;11.33;;;;;;;6.99;100.00;91331.22;5108483;28;20208;-72
2023/04/04 04:05:35;;;;;;;12.50;11.70;;;;;;;7.27;100.00;91350.19;5107945;28;20216;-75
2023/04/04 04:08:00;;;;;;;12.20;11.30;;;;;;;7.44;100.00;91340.00;5107733;28;20271;-74
2023/04/04 04:10:26;;;;;;;11.73;11.00;;;;;;;7.56;100.00;91359.22;5106822;28;20322;-74
2023/04/04 04:12:51;;;;;;;12.23;11.43;;;;;;;7.40;100.00;91350.19;5108841;28;20176;-70
2023/04/04 04:15:17;;;;;;;12.20;11.37;;;;;;;7.63;100.00;91356.19;5108354;27;20255;-69
2023/04/04 04:17:42;;;;;;;11.97;10.97;;;;;;;7.49;100.00;91342.47;5112432;28;20217;-71
2023/04/04 04:20:09;;;;;;;12.87;11.67;;;;;;;7.72;100.00;91364.88;5111396;27;20232;-72
2023/04/04 04:22:35;;;;;;;11.83;11.03;;;;;;;7.81;100.00;91360.50;5113439;28;20241;-71
2023/04/04 04:25:01;;;;;;;11.10;10.40;;;;;;;7.88;100.00;91356.47;5110865;27;20235;-70
2023/04/04 04:27:26;;;;;;;11.50;10.60;;;;;;;7.61;100.00;91322.72;5112035;28;20235;-69
2023/04/04 04:29:52;;;;;;;12.13;11.43;;;;;;;7.97;100.00;91369.50;5111238;27;21175;-70
2023/04/04 04:32:18;;;;;;;11.50;10.60;;;;;;;7.90;100.00;91367.34;5110985;28;20181;-73
2023/04/04 04:34:43;;;;;;;9.83;9.33;;;;;;;7.78;100.00;91350.72;5108921;28;20232;-71
2023/04/04 04:37:09;;;;;;;11.30;10.60;;;;;;;7.86;100.00;91370.81;5111007;28;20267;-71
2023/04/04 04:39:35;;;;;;;9.57;9.07;;;;;;;7.70;100.00;91354.78;5110952;27;20188;-72
2023/04/04 04:42:01;;;;;;;10.67;10.07;;;;;;;7.90;100.00;91385.53;5111139;28;20204;-70
2023/04/04 04:44:26;;;;;;;10.50;10.00;;;;;;;7.99;100.00;91386.38;5110366;28;20212;-69
2023/04/04 04:46:52;;;;;;;10.53;9.80;;;;;;;8.01;100.00;91386.84;5108776;28;20191;-70
2023/04/04 04:49:17;;;;;;;12.53;11.53;;;;;;;7.98;100.00;91386.66;5110167;27;20180;-71
2023/04/04 04:51:43;;;;;;;11.33;10.47;;;;;;;8.16;100.00;91390.94;5110284;28;20259;-68
2023/04/04 04:54:09;;;;;;;10.50;9.80;;;;;;;7.86;100.00;91384.56;5110739;28;20199;-69
2023/04/04 04:56:35;;;;;;;10.47;9.97;;;;;;;7.89;100.00;91386.56;5111856;28;20253;-70
2023/04/04 04:59:01;;;;;;;10.10;9.50;;;;;;;7.96;100.00;91360.97;5108630;28;20219;-71
2023/04/04 05:01:26;;;;;;;9.47;8.90;;;;;;;7.76;100.00;91363.22;5110096;28;20236;-70
2023/04/04 05:03:51;;;;;;;10.67;10.07;;;;;;;8.40;100.00;91401.09;5110389;28;20191;-70
2023/04/04 05:06:17;;;;;;;10.87;10.23;;;;;;;8.37;100.00;91409.50;5110179;28;20324;-69
2023/04/04 05:08:42;;;;;;;14.60;13.80;;;;;;;8.45;100.00;91411.41;5109382;28;20204;-73
2023/04/04 05:11:07;;;;;;;12.50;11.80;;;;;;;8.32;100.00;91401.78;5109874;28;20220;-73
2023/04/04 05:13:33;;;;;;;12.13;11.13;;;;;;;8.42;100.00;91417.19;5110416;28;20196;-72
2023/04/04 05:15:59;;;;;;;13.77;12.77;;;;;;;7.69;100.00;91374.00;5110210;28;20227;-72
2023/04/04 05:18:26;;;;;;;13.53;12.60;;;;;;;7.74;100.00;91380.91;5109350;28;20221;-72
2023/04/04 05:20:53;;;;;;;13.77;12.60;;;;;;;8.35;100.00;91416.81;5108941;28;20245;-71
2023/04/04 05:23:18;;;;;;;17.27;15.67;;;;;;;8.47;100.00;91440.50;5109381;28;20218;-71
2023/04/04 05:25:44;;;;;;;17.10;15.30;;;;;;;7.95;100.00;91419.16;5110645;28;20224;-77
2023/04/04 05:28:09;;;;;;;16.90;15.57;;;;;;;8.35;100.00;91427.22;5102811;28;20188;-75
2023/04/04 05:30:34;;;;;;;14.60;13.37;;;;;;;7.97;100.00;91382.50;5108564;28;20220;-78
2023/04/04 05:33:00;;;;;;;14.20;12.80;;;;;;;8.20;100.00;91423.84;5107613;28;20196;-78
2023/04/04 05:35:25;;;;;;;16.47;15.03;;;;;;;8.31;100.00;91431.47;5109831;28;20228;-78
2023/04/04 05:37:51;;;;;;;59.37;55.40;;;;;;;8.28;100.00;91411.25;5110597;28;20195;-76
2023/04/04 05:40:16;;;;;;;13.20;12.10;;;;;;;8.27;100.00;91412.31;5109133;28;20215;-78
2023/04/04 05:42:42;;;;;;;13.10;12.20;;;;;;;8.34;100.00;91430.88;5110032;28;20216;-78
2023/04/04 05:45:09;;;;;;;13.53;12.37;;;;;;;8.58;100.00;91433.97;5109703;28;20224;-78
2023/04/04 05:47:34;;;;;;;14.73;13.67;;;;;;;8.63;100.00;91413.06;5108745;28;20213;-78
2023/04/04 05:50:00;;;;;;;13.30;12.30;;;;;;;8.92;100.00;91434.25;5109038;28;20245;-78
2023/04/04 05:52:25;;;;;;;13.30;12.23;;;;;;;9.03;100.00;91422.50;5109575;28;20706;-77
2023/04/04 05:54:51;;;;;;;14.23;13.13;;;;;;;9.28;100.00;91442.69;5108576;28;20234;-76
2023/04/04 05:57:16;;;;;;;13.83;12.73;;;;;;;9.31;100.00;91448.09;5109831;28;20654;-78
2023/04/04 05:59:42;;;;;;;14.47;13.10;;;;;;;9.25;100.00;91453.72;5110456;28;20220;-78
2023/04/04 06:02:07;;;;;;;14.90;13.70;;;;;;;9.23;100.00;91448.06;5107463;28;20218;-78
2023/04/04 06:04:33;;;;;;;15.03;13.80;;;;;;;9.26;100.00;91456.03;5109024;28;20259;-78
2023/04/04 06:06:59;;;;;;;14.57;13.37;;;;;;;9.00;100.00;91449.91;5109087;28;20199;-76
2023/04/04 06:09:26;;;;;;;15.77;14.30;;;;;;;8.71;100.00;91420.16;5104845;28;20191;-78
2023/04/04 06:11:51;;;;;;;16.10;14.60;;;;;;;8.88;100.00;91446.28;5107897;28;20196;-74
2023/04/04 06:14:16;;;;;;;20.10;18.07;;;;;;;8.88;100.00;91459.31;5109463;28;20192;-73
2023/04/04 06:16:42;;;;;;;21.33;19.13;;;;;;;9.08;100.00;91459.59;5108528;28;20289;-74
2023/04/04 06:19:07;;;;;;;21.60;19.27;;;;;;;9.35;100.00;91471.72;5109642;28;20184;-76
2023/04/04 06:21:33;;;;;;;19.97;17.97;;;;;;;9.10;100.00;91446.28;5109470;28;21008;-73
2023/04/04 06:23:58;;;;;;;19.97;18.03;;;;;;;9.13;100.00;91463.91;5109827;28;20682;-73
2023/04/04 06:26:25;;;;;;;20.33;18.23;;;;;;;9.97;100.00;91462.00;5108389;28;20231;-73
2023/04/04 06:28:51;;;;;;;17.20;15.60;;;;;;;9.86;100.00;91455.53;5108431;28;20197;-74
2023/04/04 06:31:16;;;;;;;18.70;17.07;;;;;;;10.30;100.00;91476.25;5108284;28;20353;-75
2023/04/04 06:33:42;;;;;;;19.70;17.63;;;;;;;9.82;100.00;91390.22;5107151;28;20192;-76
2023/04/04 06:36:08;;;;;;;20.27;18.27;;;;;;;10.42;100.00;91484.25;5108163;28;20248;-73
2023/04/04 06:38:33;;;;;;;19.53;15.97;;;;;;;10.20;100.00;91481.72;5108815;28;20196;-74
2023/04/04 06:40:58;;;;;;;15.50;14.10;;;;;;;10.00;100.00;91475.22;5108466;28;20227;-74
2023/04/04 06:43:24;;;;;;;12.60;11.70;;;;;;;9.34;100.00;91485.78;5109622;28;20288;-74
2023/04/04 06:45:50;;;;;;;12.00;11.20;;;;;;;8.73;100.00;91481.22;5110633;28;20227;-74
2023/04/04 06:48:15;;;;;;;14.03;13.00;;;;;;;8.90;100.00;91476.16;5107922;28;20192;-75
2023/04/04 06:50:41;;;;;;;15.87;14.57;;;;;;;8.82;100.00;91497.69;5108998;28;20290;-75
2023/04/04 06:53:06;;;;;;;12.43;11.53;;;;;;;8.65;100.00;91488.97;5109270;28;20194;-74
2023/04/04 06:55:33;;;;;;;12.27;11.40;;;;;;;7.81;100.00;91498.94;5108454;27;20232;-73
2023/04/04 06:57:58;;;;;;;11.03;10.50;;;;;;;7.17;100.00;91499.06;5106184;28;20207;-73
2023/04/04 07:00:24;;;;;;;10.17;9.67;;;;;;;6.80;100.00;91516.50;5108321;27;20231;-73
2023/04/04 07:02:59;;;;;;;10.47;10.00;;;;;;;6.69;100.00;91513.31;5108248;28;20248;-73
2023/04/04 07:05:25;;;;;;;10.20;9.50;;;;;;;6.82;100.00;91525.53;5107759;27;20234;-73
2023/04/04 07:07:53;;;;;;;8.63;8.33;;;;;;;6.53;100.00;91545.66;5107324;28;20187;-72
2023/04/04 07:10:20;;;;;;;9.37;8.97;;;;;;;6.39;100.00;91542.22;5108325;28;20340;-70
2023/04/04 07:12:47;;;;;;;9.03;8.63;;;;;;;6.08;100.00;91561.78;5109281;28;20164;-75
2023/04/04 07:15:13;;;;;;;10.47;9.70;;;;;;;6.16;100.00;91559.31;5108094;27;20219;-74
2023/04/04 07:17:39;;;;;;;9.57;9.17;;;;;;;5.95;100.00;91539.91;5110496;28;20188;-73
2023/04/04 07:20:08;;;;;;;9.23;8.83;;;;;;;6.23;100.00;91564.19;5107631;28;20281;-74
2023/04/04 07:22:38;;;;;;;9.27;8.87;;;;;;;6.21;100.00;91553.34;5109176;28;20883;-73
2023/04/04 07:25:05;;;;;;;10.70;10.20;;;;;;;6.08;100.00;91577.31;5106329;28;20250;-74
2023/04/04 07:27:30;;;;;;;10.43;9.93;;;;;;;5.88;100.00;91593.06;5109996;28;20176;-73
2023/04/04 07:29:56;;;;;;;9.87;9.47;;;;;;;5.39;100.00;91574.34;5102154;28;20269;-73
2023/04/04 07:32:22;;;;;;;8.67;8.27;;;;;;;5.53;100.00;91594.16;5088136;28;20264;-74
2023/04/04 07:34:49;;;;;;;7.93;7.60;;;;;;;5.14;100.00;91551.28;5094034;28;20296;-73
2023/04/04 07:37:14;;;;;;;9.73;9.33;;;;;;;5.58;100.00;91591.53;5107354;28;20176;-72
2023/04/04 07:39:40;;;;;;;8.33;8.03;;;;;;;5.38;100.00;91598.69;5108218;28;20291;-72
2023/04/04 07:42:06;;;;;;;9.17;8.77;;;;;;;5.29;100.00;91579.59;5108173;28;20238;-72
2023/04/04 07:44:31;;;;;;;9.53;9.13;;;;;;;5.16;100.00;91575.03;5108031;28;20195;-73
2023/04/04 07:46:57;;;;;;;9.77;9.37;;;;;;;4.72;100.00;91547.44;5110393;28;20184;-73
2023/04/04 07:49:22;;;;;;;8.73;8.43;;;;;;;5.16;100.00;91595.75;5109013;28;20210;-73
2023/04/04 07:51:47;;;;;;;9.30;8.90;;;;;;;5.28;100.00;91616.84;5113463;28;20190;-72
2023/04/04 07:54:13;;;;;;;8.87;8.47;;;;;;;4.91;100.00;91581.97;5112649;28;20271;-73
2023/04/04 07:56:39;;;;;;;8.90;8.60;;;;;;;4.84;100.00;91612.50;5113490;27;20228;-73
2023/04/04 07:59:04;;;;;;;8.90;8.60;;;;;;;4.69;100.00;91609.22;5113152;28;20203;-74
2023/04/04 08:01:29;;;;;;;9.40;9.10;;;;;;;4.76;100.00;91592.38;5112182;28;20215;-73
2023/04/04 08:03:55;;;;;;;9.57;9.07;;;;;;;4.86;100.00;91623.34;5113834;28;20225;-73
2023/04/04 08:06:21;;;;;;;9.03;8.63;;;;;;;4.68;100.00;91624.00;5112282;27;20239;-73
2023/04/04 08:08:46;;;;;;;8.67;8.37;;;;;;;4.95;100.00;91631.31;5112866;28;20180;-73
2023/04/04 08:11:12;;;;;;;8.73;8.43;;;;;;;4.61;100.00;91610.56;5111916;28;20224;-72
2023/04/04 08:13:38;;;;;;;8.40;8.10;;;;;;;4.80;100.00;91608.91;5113616;28;20202;-72
2023/04/04 08:16:04;;;;;;;10.43;9.93;;;;;;;4.93;100.00;91623.06;5111794;28;20219;-73
2023/04/04 08:18:29;;;;;;;8.93;8.57;;;;;;;4.88;100.00;91631.63;5112929;28;20184;-73
2023/04/04 08:20:54;;;;;;;8.17;7.87;;;;;;;4.60;100.00;91624.53;5111969;27;20226;-71
2023/04/04 08:23:20;;;;;;;8.60;8.23;;;;;;;4.65;100.00;91650.34;5111623;28;20283;-72
2023/04/04 08:25:46;;;;;;;8.90;8.43;;;;;;;4.68;100.00;91662.75;5114381;28;20329;-72
2023/04/04 08:28:12;;;;;;;8.37;8.07;;;;;;;4.38;100.00;91637.03;5112399;28;20200;-71
2023/04/04 08:30:38;;;;;;;8.10;7.80;;;;;;;4.62;100.00;91663.78;5112839;28;20219;-73
2023/04/04 08:33:03;;;;;;;9.93;9.33;;;;;;;4.72;100.00;91671.53;5113622;28;20199;-75
2023/04/04 08:35:28;;;;;;;9.27;8.87;;;;;;;4.64;100.00;91656.56;5112558;27;20222;-74
2023/04/04 08:37:54;;;;;;;8.87;8.47;;;;;;;4.83;100.00;91670.44;5113144;28;20243;-74
2023/04/04 08:40:20;;;;;;;9.53;9.13;;;;;;;4.53;100.00;91674.94;5109496;28;20224;-73
2023/04/04 08:42:47;;;;;;;9.80;9.40;;;;;;;4.69;100.00;91674.63;5114015;28;20267;-72
2023/04/04 08:45:17;;;;;;;10.50;10.00;;;;;;;4.61;100.00;91667.44;5110154;27;20204;-73
2023/04/04 08:47:43;;;;;;;10.50;10.00;;;;;;;4.35;100.00;91637.56;5109019;28;20192;-74
2023/04/04 08:50:08;;;;;;;9.30;8.80;;;;;;;4.51;100.00;91672.63;5110894;28;20227;-73
2023/04/04 08:52:34;;;;;;;9.13;8.73;;;;;;;4.42;100.00;91683.81;5111396;28;20192;-73
2023/04/04 08:55:03;;;;;;;9.57;9.13;;;;;;;4.17;100.00;91673.53;5110527;27;20242;-74
2023/04/04 08:57:28;;;;;;;9.83;9.43;;;;;;;4.53;100.00;91669.78;5112207;28;20203;-74
2023/04/04 08:59:54;;;;;;;8.50;8.20;;;;;;;4.36;100.00;91669.31;5110346;27;20231;-75
2023/04/04 09:02:28;;;;;;;9.93;9.53;;;;;;;4.68;100.00;91695.59;5109351;28;20215;-76
2023/04/04 09:04:55;;;;;;;9.87;9.47;;;;;;;4.54;100.00;91692.81;5110751;28;20265;-75
2023/04/04 09:07:21;;;;;;;10.33;9.93;;;;;;;4.69;100.00;91700.47;5110386;28;20192;-74
2023/04/04 09:09:48;;;;;;;9.63;9.20;;;;;;;4.62;100.00;91679.31;5110704;28;20239;-74
2023/04/04 09:12:14;;;;;;;9.60;9.20;;;;;;;4.58;100.00;91695.59;5110917;28;20184;-73
2023/04/04 09:14:42;;;;;;;9.83;9.43;;;;;;;4.33;100.00;91699.06;5110454;28;20227;-72
2023/04/04 09:17:09;;;;;;;9.03;8.63;;;;;;;3.99;100.00;91664.53;5108456;28;20252;-73
2023/04/04 09:19:36;;;;;;;9.30;8.90;;;;;;;4.02;100.00;91671.75;5111382;28;20188;-73
2023/04/04 09:22:05;;;;;;;8.90;8.60;;;;;;;4.24;100.00;91684.34;5106905;28;20219;-74
2023/04/04 09:24:41;;;;;;;11.33;10.73;;;;;;;4.16;100.00;91671.97;5111352;28;20184;-74
2023/04/04 09:27:09;;;;;;;9.43;9.03;;;;;;;3.94;100.00;91676.69;5109917;28;20172;-75
2023/04/04 09:29:36;;;;;;;9.70;9.30;;;;;;;3.95;100.00;91678.22;5110225;27;20199;-74
2023/04/04 09:32:02;;;;;;;11.60;11.10;;;;;;;3.99;100.00;91686.97;5110347;28;20193;-74
2023/04/04 09:34:29;;;;;;;9.97;9.53;;;;;;;4.01;100.00;91714.09;5111058;28;20184;-74
2023/04/04 09:36:55;;;;;;;9.57;9.07;;;;;;;2.66;100.00;91531.06;5110408;28;20272;-76
2023/04/04 09:39:22;;;;;;;9.47;8.97;;;;;;;3.64;100.00;91656.06;5109479;27;20168;-75
2023/04/04 09:41:48;;;;;;;9.70;9.20;;;;;;;4.00;100.00;91702.22;5111115;28;20189;-74
2023/04/04 09:44:15;;;;;;;9.40;9.00;;;;;;;4.40;100.00;91702.16;5109720;28;20187;-76
2023/04/04 09:46:41;;;;;;;9.77;9.37;;;;;;;4.19;100.00;91654.16;5109391;28;20307;-75
2023/04/04 09:49:10;;;;;;;9.63;9.13;;;;;;;4.39;100.00;91695.41;5111499;28;20184;-77
2023/04/04 09:51:43;;;;;;;10.07;9.57;;;;;;;4.74;100.00;91717.78;5109617;28;20300;-75
2023/04/04 09:54:19;;;;;;;10.43;9.93;;;;;;;4.90;100.00;91717.44;5109156;28;20229;-75
2023/04/04 09:56:45;;;;;;;9.53;9.13;;;;;;;5.12;100.00;91708.56;5109491;28;20368;-73
2023/04/04 09:59:11;;;;;;;9.90;9.43;;;;;;;4.74;100.00;91677.19;5109723;28;20189;-74
2023/04/04 10:01:36;;;;;;;8.77;8.47;;;;;;;4.49;100.00;91692.81;5107485;28;20299;-74
2023/04/04 10:04:03;;;;;;;9.33;8.87;;;;;;;4.76;100.00;91700.97;5109854;28;20196;-74
2023/04/04 10:06:29;;;;;;;9.57;9.17;;;;;;;4.45;100.00;91670.34;5110167;28;20216;-73
2023/04/04 10:08:55;;;;;;;9.43;9.03;;;;;;;4.72;100.00;91712.88;5109598;28;20270;-72
2023/04/04 10:11:34;;;;;;;9.63;9.23;;;;;;;4.43;100.00;91670.63;5092132;28;20221;-73
2023/04/04 10:14:02;;;;;;;9.40;9.00;;;;;;;5.04;100.00;91711.69;5088562;28;20196;-73
2023/04/04 10:16:31;;;;;;;9.60;9.20;;;;;;;4.89;100.00;91710.72;5086766;28;20263;-73
2023/04/04 10:18:58;;;;;;;9.27;8.87;;;;;;;4.52;99.15;91730.25;5089037;28;20246;-73
2023/04/04 10:21:26;;;;;;;9.93;9.53;;;;;;;4.27;99.59;91707.84;5084791;28;20241;-72
2023/04/04 10:23:52;;;;;;;9.30;8.97;;;;;;;4.14;100.00;91721.31;5090254;28;20213;-75
2023/04/04 10:26:17;;;;;;;9.87;9.47;;;;;;;4.20;100.00;91702.16;5096858;28;20228;-74
2023/04/04 10:28:43;;;;;;;10.23;9.73;;;;;;;4.24;100.00;91710.97;5097562;28;20192;-73
2023/04/04 10:31:19;;;;;;;11.20;10.60;;;;;;;4.59;99.63;91759.94;5091408;28;20224;-72
2023/04/04 10:33:56;;;;;;;9.37;8.97;;;;;;;4.31;100.00;91765.69;5088681;28;20220;-75
2023/04/04 10:36:26;;;;;;;9.20;8.80;;;;;;;4.23;100.00;91758.50;5087798;28;20239;-74
2023/04/04 10:39:13;;;;;;;9.23;8.83;;;;;;;4.21;99.75;91754.63;5089597;28;20181;-73
2023/04/04 10:41:40;;;;;;;10.60;10.10;;;;;;;4.33;100.00;91763.63;5107908;28;20291;-73
2023/04/04 10:44:28;;;;;;;9.43;9.03;;;;;;;4.10;99.62;91761.59;5108684;28;20191;-73
2023/04/04 10:46:56;;;;;;;8.60;8.30;;;;;;;3.97;100.00;91769.88;5086252;28;20240;-73
2023/04/04 10:49:22;;;;;;;9.77;9.27;;;;;;;4.07;99.37;91769.09;5088676;28;20252;-73
2023/04/04 10:51:50;;;;;;;10.70;9.67;;;;;;;4.09;100.00;91772.19;5108255;28;20191;-73
2023/04/04 10:54:15;;;;;;;9.10;8.70;;;;;;;4.14;100.00;91765.22;5109574;28;20195;-74
2023/04/04 10:56:41;;;;;;;8.43;8.10;;;;;;;4.29;100.00;91767.00;5108661;28;20212;-77
2023/04/04 10:59:12;;;;;;;9.60;9.20;;;;;;;4.14;99.15;91767.03;5107978;28;20195;-73
2023/04/04 11:01:57;;;;;;;10.87;10.23;;;;;;;3.94;98.51;91774.78;5107712;27;20242;-75
2023/04/04 11:04:34;;;;;;;10.30;9.50;;;;;;;4.02;97.32;91766.50;5107453;28;20188;-73
2023/04/04 11:07:05;;;;;;;10.43;9.93;;;;;;;4.27;99.06;91781.97;5107930;28;20187;-70
2023/04/04 11:09:50;;;;;;;9.63;9.23;;;;;;;4.14;99.40;91734.22;5106820;28;20190;-75
2023/04/04 11:12:19;;;;;;;10.63;9.83;;;;;;;4.24;95.23;91762.63;5088867;28;20203;-75
2023/04/04 11:15:07;;;;;;;8.80;8.40;;;;;;;3.78;97.02;91792.09;5092967;28;20275;-74
2023/04/04 11:17:47;;;;;;;9.77;9.27;;;;;;;3.78;97.45;91794.66;5109298;28;20251;-73
2023/04/04 11:20:22;;;;;;;10.33;9.83;;;;;;;3.66;98.73;91770.88;5108615;28;20224;-74
2023/04/04 11:23:19;;;;;;;10.27;9.87;;;;;;;3.79;97.88;91798.78;5108498;28;20236;-73
2023/04/04 11:25:55;;;;;;;11.23;10.73;;;;;;;3.71;98.05;91796.72;5110470;27;20291;-75